createdAt,value
2022-07-31T00:01:15.246Z,527.63
2022-07-31T00:03:41.721Z,496.10
2022-07-31T00:06:08.649Z,511.40
2022-07-31T00:08:35.141Z,495.47
2022-07-31T00:11:01.595Z,502.97
2022-07-31T00:13:56.443Z,513.40
2022-07-31T00:16:14.539Z,495.00
2022-07-31T00:18:43.634Z,518.67
2022-07-31T00:21:10.092Z,529.03
2022-07-31T00:23:36.526Z,525.97
2022-07-31T00:26:02.964Z,538.90
2022-07-31T00:28:29.401Z,512.90
2022-07-31T00:30:55.880Z,532.03
2022-07-31T00:33:22.333Z,506.57
2022-07-31T00:35:48.782Z,528.23
2022-07-31T00:38:30.611Z,507.67
2022-07-31T00:40:57.058Z,500.03
2022-07-31T00:43:23.504Z,506.20
2022-07-31T00:45:59.150Z,522.73
2022-07-31T00:48:25.890Z,507.47
2022-07-31T00:50:54.217Z,530.83
2022-07-31T00:53:20.683Z,502.40
2022-07-31T00:55:52.016Z,504.63
2022-07-31T00:58:18.723Z,514.50
2022-07-31T01:00:45.216Z,495.67
2022-07-31T01:03:11.684Z,526.23
2022-07-31T01:05:38.185Z,512.20
2022-07-31T01:08:04.624Z,517.70
2022-07-31T01:10:31.091Z,534.63
2022-07-31T01:12:57.542Z,528.83
2022-07-31T01:15:23.996Z,533.03
2022-07-31T01:17:50.428Z,518.97
2022-07-31T01:20:16.869Z,544.10
2022-07-31T01:22:43.292Z,523.67
2022-07-31T01:25:09.770Z,546.50
2022-07-31T01:27:49.778Z,545.70
2022-07-31T01:30:16.493Z,543.60
2022-07-31T01:32:42.947Z,538.50
2022-07-31T01:35:09.406Z,544.83
2022-07-31T01:37:35.862Z,544.10
2022-07-31T01:40:02.344Z,545.43
2022-07-31T01:42:28.774Z,548.70
2022-07-31T01:44:55.235Z,550.60
2022-07-31T01:47:21.657Z,535.47
2022-07-31T01:49:48.151Z,531.93
2022-07-31T01:52:14.602Z,541.67
2022-07-31T01:54:41.040Z,520.80
2022-07-31T01:57:07.564Z,532.90
2022-07-31T01:59:34.002Z,543.00
2022-07-31T02:02:01.521Z,543.33
2022-07-31T02:04:28.403Z,534.83
2022-07-31T02:06:54.901Z,542.93
2022-07-31T02:09:21.333Z,535.37
2022-07-31T02:11:54.676Z,538.77
2022-07-31T02:14:21.505Z,532.60
2022-07-31T02:16:47.963Z,545.33
2022-07-31T02:19:14.404Z,537.10
2022-07-31T02:21:40.860Z,536.20
2022-07-31T02:24:07.304Z,540.40
2022-07-31T02:26:33.761Z,531.20
2022-07-31T02:29:00.206Z,534.93
2022-07-31T02:31:26.667Z,543.80
2022-07-31T02:33:53.101Z,543.83
2022-07-31T02:36:19.546Z,530.53
2022-07-31T02:38:45.999Z,530.03
2022-07-31T02:41:12.508Z,517.80
2022-07-31T02:43:38.965Z,543.00
2022-07-31T02:46:05.423Z,542.83
2022-07-31T02:48:31.893Z,544.13
2022-07-31T02:50:58.334Z,544.73
2022-07-31T02:53:24.805Z,543.63
2022-07-31T02:55:51.243Z,544.40
2022-07-31T02:58:17.682Z,545.53
2022-07-31T03:00:44.211Z,547.30
2022-07-31T03:03:10.696Z,538.83
2022-07-31T03:05:37.143Z,546.53
2022-07-31T03:08:03.578Z,546.00
2022-07-31T03:10:30.028Z,539.40
2022-07-31T03:12:56.477Z,546.40
2022-07-31T03:15:22.924Z,547.40
2022-07-31T03:17:49.363Z,537.20
2022-07-31T03:20:15.824Z,536.50
2022-07-31T03:22:42.266Z,538.40
2022-07-31T03:25:08.718Z,547.10
2022-07-31T03:27:35.160Z,542.40
2022-07-31T03:30:01.611Z,541.40
2022-07-31T03:32:28.067Z,549.00
2022-07-31T03:34:54.524Z,543.20
2022-07-31T03:37:20.967Z,542.47
2022-07-31T03:39:47.432Z,528.73
2022-07-31T03:42:19.008Z,545.77
2022-07-31T03:44:45.923Z,541.90
2022-07-31T03:47:12.358Z,543.70
2022-07-31T03:49:38.818Z,548.83
2022-07-31T03:52:08.704Z,547.50
2022-07-31T03:54:37.980Z,549.03
2022-07-31T03:57:04.429Z,541.20
2022-07-31T03:59:32.451Z,542.93
2022-07-31T04:02:10.418Z,538.10
2022-07-31T04:04:37.790Z,545.00
2022-07-31T04:07:04.229Z,538.73
2022-07-31T04:09:30.677Z,520.20
2022-07-31T04:11:57.133Z,535.77
2022-07-31T04:14:23.593Z,529.33
2022-07-31T04:16:50.026Z,535.80
2022-07-31T04:19:16.495Z,519.53
2022-07-31T04:21:42.922Z,532.80
2022-07-31T04:24:09.349Z,531.60
2022-07-31T04:26:35.794Z,537.33
2022-07-31T04:29:02.274Z,546.20
2022-07-31T04:31:28.759Z,548.47
2022-07-31T04:33:56.979Z,534.83
2022-07-31T04:36:29.984Z,515.67
2022-07-31T04:38:57.310Z,543.63
2022-07-31T04:41:23.769Z,535.20
2022-07-31T04:43:50.223Z,539.20
2022-07-31T04:46:17.279Z,550.73
2022-07-31T04:48:45.012Z,548.10
2022-07-31T04:51:11.972Z,533.87
2022-07-31T04:53:41.463Z,519.13
2022-07-31T04:56:07.910Z,537.40
2022-07-31T04:58:34.346Z,545.20
2022-07-31T05:01:00.784Z,536.40
2022-07-31T05:03:27.236Z,548.43
2022-07-31T05:05:53.701Z,528.97
2022-07-31T05:08:20.174Z,526.83
2022-07-31T05:10:46.621Z,541.40
2022-07-31T05:13:13.050Z,516.73
2022-07-31T05:15:42.585Z,547.73
2022-07-31T05:18:09.049Z,531.97
2022-07-31T05:20:35.552Z,550.10
2022-07-31T05:23:01.982Z,543.50
2022-07-31T05:25:32.992Z,550.23
2022-07-31T05:27:59.428Z,547.07
2022-07-31T05:30:30.371Z,542.33
2022-07-31T05:32:57.226Z,541.70
2022-07-31T05:35:23.687Z,544.40
2022-07-31T05:37:50.118Z,533.07
2022-07-31T05:40:16.561Z,539.40
2022-07-31T05:42:43.012Z,519.73
2022-07-31T05:45:09.462Z,541.67
2022-07-31T05:47:40.689Z,532.90
2022-07-31T05:50:07.382Z,522.27
2022-07-31T05:52:33.878Z,542.37
2022-07-31T05:55:00.323Z,530.13
2022-07-31T05:57:33.499Z,537.20
2022-07-31T06:00:01.749Z,531.00
2022-07-31T06:02:30.578Z,544.20
2022-07-31T06:04:57.096Z,524.77
2022-07-31T06:07:23.573Z,545.80
2022-07-31T06:09:50.025Z,548.23
2022-07-31T06:12:16.864Z,531.73
2022-07-31T06:14:43.321Z,542.27
2022-07-31T06:17:09.772Z,539.30
2022-07-31T06:19:36.190Z,550.63
2022-07-31T06:22:02.854Z,544.53
2022-07-31T06:24:29.481Z,542.10
2022-07-31T06:26:55.966Z,544.17
2022-07-31T06:29:41.042Z,536.53
2022-07-31T06:32:08.450Z,530.67
2022-07-31T06:34:34.894Z,535.93
2022-07-31T06:37:01.347Z,520.67
2022-07-31T06:39:54.072Z,540.93
2022-07-31T06:42:14.208Z,516.97
2022-07-31T06:44:45.943Z,530.33
2022-07-31T06:47:13.761Z,531.13
2022-07-31T06:49:42.529Z,529.40
2022-07-31T06:52:09.046Z,533.60
2022-07-31T06:54:35.505Z,546.00
2022-07-31T06:57:01.955Z,549.73
2022-07-31T06:59:40.077Z,532.30
2022-07-31T07:02:07.648Z,534.87
2022-07-31T07:05:05.052Z,547.00
2022-07-31T07:07:20.960Z,530.67
2022-07-31T07:09:47.391Z,543.80
2022-07-31T07:12:16.615Z,536.80
2022-07-31T07:14:43.538Z,542.80
2022-07-31T07:17:10.078Z,525.93
2022-07-31T07:19:36.544Z,544.87
2022-07-31T07:22:03.173Z,545.60
2022-07-31T07:24:29.781Z,545.30
2022-07-31T07:26:56.245Z,541.30
2022-07-31T07:29:22.676Z,547.00
2022-07-31T07:31:49.106Z,552.83
2022-07-31T07:34:15.572Z,548.43
2022-07-31T07:36:42.024Z,547.73
2022-07-31T07:39:08.580Z,546.40
2022-07-31T07:41:35.033Z,527.60
2022-07-31T07:44:01.480Z,539.90
2022-07-31T07:46:27.982Z,543.73
2022-07-31T07:48:54.479Z,552.30
2022-07-31T07:51:20.997Z,549.47
2022-07-31T07:53:47.449Z,542.57
2022-07-31T07:56:13.896Z,544.30
2022-07-31T07:58:40.337Z,528.47
2022-07-31T08:01:06.846Z,533.53
2022-07-31T08:03:50.442Z,527.73
2022-07-31T08:06:18.498Z,535.50
2022-07-31T08:08:44.927Z,527.20
2022-07-31T08:11:16.970Z,516.30
2022-07-31T08:13:49.321Z,512.43
2022-07-31T08:16:16.459Z,536.37
2022-07-31T08:18:42.879Z,534.50
2022-07-31T08:21:09.351Z,541.60
2022-07-31T08:23:35.810Z,532.37
2022-07-31T08:26:02.251Z,535.93
2022-07-31T08:28:28.674Z,538.20
2022-07-31T08:30:56.189Z,527.50
2022-07-31T08:33:22.723Z,542.03
2022-07-31T08:35:50.559Z,521.93
2022-07-31T08:38:17.411Z,546.30
2022-07-31T08:40:43.918Z,540.47
2022-07-31T08:43:31.196Z,518.63
2022-07-31T08:45:56.834Z,513.10
2022-07-31T08:48:23.267Z,533.03
2022-07-31T08:50:53.498Z,534.93
2022-07-31T08:53:20.380Z,535.40
2022-07-31T08:55:56.814Z,514.50
2022-07-31T08:58:24.748Z,522.13
2022-07-31T09:00:51.524Z,532.57
2022-07-31T09:03:18.073Z,530.50
2022-07-31T09:05:44.530Z,541.13
2022-07-31T09:08:15.114Z,537.77
2022-07-31T09:10:44.077Z,511.77
2022-07-31T09:13:14.144Z,514.83
2022-07-31T09:15:40.582Z,535.83
2022-07-31T09:18:07.290Z,538.43
2022-07-31T09:20:33.727Z,519.30
2022-07-31T09:23:00.189Z,526.40
2022-07-31T09:25:26.639Z,533.27
2022-07-31T09:27:54.182Z,526.33
2022-07-31T09:30:20.611Z,502.43
2022-07-31T09:32:47.100Z,509.77
2022-07-31T09:35:13.579Z,541.67
2022-07-31T09:37:40.102Z,524.63
2022-07-31T09:40:07.295Z,519.23
2022-07-31T09:42:34.592Z,521.57
2022-07-31T09:45:01.064Z,525.90
2022-07-31T09:47:27.595Z,503.07
2022-07-31T09:49:54.058Z,499.90
2022-07-31T09:52:20.525Z,508.83
2022-07-31T09:54:46.973Z,465.60
2022-07-31T09:57:13.466Z,474.33
2022-07-31T09:59:39.918Z,495.20
2022-07-31T10:02:06.384Z,493.77
2022-07-31T10:04:32.824Z,478.13
2022-07-31T10:06:59.284Z,479.23
2022-07-31T10:09:25.707Z,456.97
2022-07-31T10:11:52.173Z,473.67
2022-07-31T10:14:18.649Z,461.90
2022-07-31T10:16:45.155Z,510.57
2022-07-31T10:19:11.620Z,474.90
2022-07-31T10:21:38.102Z,504.67
2022-07-31T10:24:04.560Z,536.23
2022-07-31T10:26:57.685Z,526.40
2022-07-31T10:29:17.438Z,515.10
2022-07-31T10:31:43.948Z,486.33
2022-07-31T10:34:10.410Z,482.37
2022-07-31T10:36:36.838Z,478.60
2022-07-31T10:39:03.262Z,461.57
2022-07-31T10:41:29.734Z,463.27
2022-07-31T10:43:56.187Z,458.30
2022-07-31T10:46:22.629Z,477.10
2022-07-31T10:48:49.104Z,467.87
2022-07-31T10:51:15.674Z,479.50
2022-07-31T10:53:51.169Z,477.30
2022-07-31T10:56:21.942Z,477.17
2022-07-31T10:58:48.374Z,472.73
2022-07-31T11:01:17.602Z,468.83
2022-07-31T11:03:44.277Z,474.00
2022-07-31T11:06:10.756Z,475.17
2022-07-31T11:08:37.195Z,486.03
2022-07-31T11:11:03.859Z,512.30
2022-07-31T11:13:33.560Z,509.13
2022-07-31T11:16:03.634Z,526.67
2022-07-31T11:18:34.462Z,524.07
2022-07-31T11:21:13.343Z,519.80
2022-07-31T11:23:57.800Z,501.23
2022-07-31T11:26:33.455Z,514.47
2022-07-31T11:30:00.319Z,491.60
2022-07-31T11:31:54.715Z,506.10
2022-07-31T11:34:21.151Z,477.43
2022-07-31T11:36:51.290Z,486.43
2022-07-31T11:39:18.218Z,452.57
2022-07-31T11:41:45.725Z,452.37
2022-07-31T11:44:12.235Z,495.10
2022-07-31T11:46:38.710Z,503.13
2022-07-31T11:49:05.249Z,506.10
2022-07-31T11:51:31.794Z,483.13
2022-07-31T11:53:58.224Z,512.13
2022-07-31T11:56:24.684Z,487.03
2022-07-31T11:58:51.127Z,510.60
2022-07-31T12:01:17.613Z,492.23
2022-07-31T12:03:44.095Z,501.10
2022-07-31T12:06:10.573Z,499.27
2022-07-31T12:08:37.128Z,512.00
2022-07-31T12:11:03.585Z,481.63
2022-07-31T12:13:30.019Z,516.47
2022-07-31T12:15:56.486Z,497.83
2022-07-31T12:18:22.945Z,487.53
2022-07-31T12:20:49.443Z,511.90
2022-07-31T12:23:40.269Z,505.80
2022-07-31T12:26:02.349Z,478.07
2022-07-31T12:28:28.780Z,505.67
2022-07-31T12:30:55.269Z,491.33
2022-07-31T12:33:21.700Z,501.60
2022-07-31T12:35:54.837Z,505.53
2022-07-31T12:38:40.572Z,485.43
2022-07-31T12:41:07.794Z,504.33
2022-07-31T12:43:36.019Z,499.50
2022-07-31T12:46:02.505Z,479.10
2022-07-31T12:48:28.974Z,526.10
2022-07-31T12:50:55.467Z,484.17
2022-07-31T12:53:21.912Z,486.73
2022-07-31T12:55:48.367Z,489.53
2022-07-31T12:58:14.793Z,493.33
2022-07-31T13:00:41.242Z,513.43
2022-07-31T13:03:07.680Z,516.63
2022-07-31T13:05:34.147Z,519.97
2022-07-31T13:08:00.596Z,520.73
2022-07-31T13:10:32.350Z,494.37
2022-07-31T13:12:59.039Z,485.67
2022-07-31T13:15:25.493Z,499.10
2022-07-31T13:17:51.960Z,540.80
2022-07-31T13:20:18.541Z,541.10
2022-07-31T13:22:44.992Z,544.33
2022-07-31T13:25:11.432Z,540.60
2022-07-31T13:27:39.069Z,548.23
2022-07-31T13:30:07.803Z,540.87
2022-07-31T13:32:34.272Z,533.23
2022-07-31T13:35:19.711Z,543.40
2022-07-31T13:37:49.071Z,529.47
2022-07-31T13:40:15.602Z,536.70
2022-07-31T13:42:42.119Z,538.70
2022-07-31T13:45:08.984Z,506.97
2022-07-31T13:47:50.698Z,526.73
2022-07-31T13:50:18.376Z,515.60
2022-07-31T13:52:44.889Z,516.43
2022-07-31T13:55:11.324Z,512.90
2022-07-31T13:57:37.827Z,486.30
2022-07-31T14:00:04.310Z,488.10
2022-07-31T14:02:30.915Z,509.30
2022-07-31T14:04:57.487Z,508.20
2022-07-31T14:07:23.983Z,489.03
2022-07-31T14:10:10.419Z,491.43
2022-07-31T14:12:36.891Z,482.80
2022-07-31T14:15:03.354Z,487.20
2022-07-31T14:17:29.803Z,507.13
2022-07-31T14:19:56.327Z,501.60
2022-07-31T14:22:22.843Z,510.30
2022-07-31T14:24:50.762Z,522.83
2022-07-31T14:27:17.646Z,519.73
2022-07-31T14:29:44.073Z,518.53
2022-07-31T14:32:10.535Z,514.53
2022-07-31T14:34:37.026Z,519.80
2022-07-31T14:37:03.790Z,531.53
2022-07-31T14:39:30.543Z,521.67
2022-07-31T14:41:57.012Z,500.23
2022-07-31T14:44:28.619Z,492.53
2022-07-31T14:46:55.742Z,523.63
2022-07-31T14:49:22.312Z,510.90
2022-07-31T14:51:48.868Z,489.67
2022-07-31T14:54:15.314Z,522.43
2022-07-31T14:59:28.225Z,480.87
2022-07-31T15:01:54.734Z,494.10
2022-07-31T15:04:23.373Z,509.23
2022-07-31T15:06:56.370Z,517.03
2022-07-31T15:09:33.929Z,486.37
2022-07-31T15:12:01.853Z,503.43
2022-07-31T15:14:28.638Z,483.63
2022-07-31T15:16:55.104Z,496.20
2022-07-31T15:19:23.814Z,519.47
2022-07-31T15:22:15.759Z,529.37
2022-07-31T15:24:36.735Z,505.17
2022-07-31T15:27:03.644Z,517.83
2022-07-31T15:30:04.710Z,535.50
2022-07-31T15:32:16.750Z,519.53
2022-07-31T15:34:43.221Z,513.33
2022-07-31T15:37:09.683Z,515.57
2022-07-31T15:39:36.140Z,495.30
2022-07-31T15:42:02.608Z,486.30
2022-07-31T15:44:29.081Z,519.70
2022-07-31T15:46:55.590Z,517.13
2022-07-31T15:49:22.180Z,505.73
2022-07-31T15:51:48.698Z,521.07
2022-07-31T15:54:15.155Z,507.77
2022-07-31T15:56:41.650Z,505.90
2022-07-31T15:59:08.120Z,501.20
2022-07-31T16:01:37.734Z,522.43
2022-07-31T16:04:04.297Z,521.73
2022-07-31T16:06:43.353Z,482.77
2022-07-31T16:09:15.463Z,513.30
2022-07-31T16:12:04.864Z,513.03
2022-07-31T16:14:28.529Z,514.93
2022-07-31T16:16:56.718Z,516.47
2022-07-31T16:19:23.920Z,508.13
2022-07-31T16:21:50.392Z,518.80
2022-07-31T16:24:17.406Z,516.93
2022-07-31T16:26:46.828Z,496.27
2022-07-31T16:29:17.192Z,511.60
2022-07-31T16:31:44.150Z,532.73
2022-07-31T16:34:10.594Z,527.60
2022-07-31T16:36:37.079Z,539.53
2022-07-31T16:39:19.496Z,533.40
2022-07-31T16:41:54.753Z,531.83
2022-07-31T16:44:21.568Z,526.50
2022-07-31T16:46:52.739Z,531.17
2022-07-31T16:49:35.724Z,531.23
2022-07-31T16:52:02.984Z,529.60
2022-07-31T16:54:29.443Z,513.07
2022-07-31T16:56:55.919Z,540.70
2022-07-31T16:59:22.545Z,537.57
2022-07-31T17:01:59.307Z,533.53
2022-07-31T17:04:27.275Z,538.87
2022-07-31T17:06:53.742Z,516.73
2022-07-31T17:09:20.212Z,537.73
2022-07-31T17:11:46.683Z,536.23
2022-07-31T17:14:13.221Z,517.00
2022-07-31T17:16:43.465Z,522.17
2022-07-31T17:19:13.226Z,536.27
2022-07-31T17:21:44.538Z,546.27
2022-07-31T17:24:15.842Z,534.27
2022-07-31T17:26:42.691Z,534.53
2022-07-31T17:29:09.162Z,532.57
2022-07-31T17:31:35.658Z,517.87
2022-07-31T17:34:04.850Z,541.13
2022-07-31T17:36:35.296Z,533.80
2022-07-31T17:39:01.807Z,519.93
2022-07-31T17:41:28.305Z,537.80
2022-07-31T17:43:54.888Z,535.23
2022-07-31T17:46:22.076Z,544.03
2022-07-31T17:49:01.342Z,529.93
2022-07-31T17:51:27.865Z,543.83
2022-07-31T17:53:55.189Z,539.83
2022-07-31T17:56:26.014Z,531.20
2022-07-31T17:58:52.504Z,536.20
2022-07-31T18:01:19.054Z,542.63
2022-07-31T18:03:45.539Z,532.87
2022-07-31T18:06:12.027Z,538.20
2022-07-31T18:08:38.499Z,541.37
2022-07-31T18:11:05.001Z,537.23
2022-07-31T18:13:31.455Z,543.13
2022-07-31T18:16:14.359Z,528.10
2022-07-31T18:18:40.797Z,539.40
2022-07-31T18:21:07.253Z,535.80
2022-07-31T18:23:33.720Z,539.17
2022-07-31T18:26:00.242Z,529.20
2022-07-31T18:28:26.697Z,530.97
2022-07-31T18:30:53.181Z,539.80
2022-07-31T18:33:19.631Z,533.00
2022-07-31T18:35:46.086Z,518.57
2022-07-31T18:38:12.552Z,510.73
2022-07-31T18:40:39.044Z,540.80
2022-07-31T18:43:05.508Z,529.90
2022-07-31T18:45:32.369Z,533.07
2022-07-31T18:47:58.829Z,512.60
2022-07-31T18:51:01.573Z,528.33
2022-07-31T18:53:14.192Z,505.37
2022-07-31T18:55:40.706Z,522.90
2022-07-31T18:58:07.941Z,525.93
2022-07-31T19:00:36.349Z,527.93
2022-07-31T19:03:02.865Z,498.70
2022-07-31T19:05:29.374Z,520.53
2022-07-31T19:07:55.831Z,509.40
2022-07-31T19:10:29.523Z,508.67
2022-07-31T19:12:57.661Z,489.47
2022-07-31T19:15:24.135Z,505.07
2022-07-31T19:17:50.595Z,511.60
2022-07-31T19:20:56.209Z,510.17
2022-07-31T19:23:04.085Z,520.43
2022-07-31T19:25:30.554Z,512.60
2022-07-31T19:28:16.973Z,515.13
2022-07-31T19:30:45.827Z,512.97
2022-07-31T19:33:12.481Z,493.70
2022-07-31T19:35:55.334Z,487.00
2022-07-31T19:38:25.245Z,489.50
2022-07-31T19:40:51.715Z,516.30
2022-07-31T19:43:20.142Z,505.70
2022-07-31T19:46:02.724Z,525.03
2022-07-31T19:48:33.829Z,525.47
2022-07-31T19:51:00.299Z,520.57
2022-07-31T19:53:26.754Z,534.33
2022-07-31T19:55:53.213Z,540.30
2022-07-31T19:58:19.681Z,554.53
2022-07-31T20:00:46.145Z,553.30
2022-07-31T20:03:12.690Z,554.03
2022-07-31T20:05:39.194Z,564.47
2022-07-31T20:08:05.625Z,561.47
2022-07-31T20:10:32.042Z,554.93
2022-07-31T20:12:58.522Z,557.73
2022-07-31T20:15:24.979Z,560.33
2022-07-31T20:17:51.465Z,558.77
2022-07-31T20:20:17.923Z,550.93
2022-07-31T20:22:44.426Z,554.80
2022-07-31T20:25:19.511Z,561.77
2022-07-31T20:27:47.050Z,545.80
2022-07-31T20:30:13.531Z,529.87
2022-07-31T20:32:48.463Z,539.80
2022-07-31T20:35:29.179Z,543.23
2022-07-31T20:38:07.957Z,541.33
2022-07-31T20:40:38.238Z,535.43
2022-07-31T20:43:04.725Z,520.47
2022-07-31T20:45:31.161Z,542.60
2022-07-31T20:47:58.929Z,547.13
2022-07-31T20:50:25.403Z,542.77
2022-07-31T20:52:51.863Z,560.60
2022-07-31T20:55:18.436Z,552.87
2022-07-31T20:57:44.994Z,558.47
2022-07-31T21:00:11.535Z,571.63
2022-07-31T21:02:37.993Z,568.93
2022-07-31T21:05:04.432Z,566.10
2022-07-31T21:07:30.905Z,566.63
2022-07-31T21:09:57.549Z,566.77
2022-07-31T21:12:28.096Z,563.00
2022-07-31T21:14:55.925Z,554.03
2022-07-31T21:17:22.429Z,558.80
2022-07-31T21:19:52.151Z,556.83
2022-07-31T21:22:18.617Z,559.80
2022-07-31T21:24:45.074Z,541.07
2022-07-31T21:27:11.580Z,558.37
2022-07-31T21:29:38.076Z,548.87
2022-07-31T21:32:04.811Z,557.70
2022-07-31T21:34:31.490Z,548.40
2022-07-31T21:36:58.027Z,525.57
2022-07-31T21:39:26.619Z,522.23
2022-07-31T21:41:53.122Z,541.33
2022-07-31T21:44:19.579Z,528.87
2022-07-31T21:46:51.602Z,542.10
2022-07-31T21:49:18.467Z,533.23
2022-07-31T21:51:44.984Z,537.33
2022-07-31T21:54:11.466Z,538.43
2022-07-31T21:56:38.074Z,520.57
2022-07-31T21:59:04.564Z,536.40
2022-07-31T22:01:31.199Z,524.93
2022-07-31T22:03:57.676Z,532.40
2022-07-31T22:06:26.183Z,530.30
2022-07-31T22:08:52.882Z,525.90
2022-07-31T22:11:19.331Z,531.60
2022-07-31T22:13:45.864Z,533.53
2022-07-31T22:16:12.513Z,532.60
2022-07-31T22:18:38.984Z,543.73
2022-07-31T22:21:05.445Z,533.70
2022-07-31T22:23:31.906Z,517.27
2022-07-31T22:25:58.363Z,549.50
2022-07-31T22:28:24.801Z,532.40
2022-07-31T22:30:51.282Z,505.80
2022-07-31T22:33:17.750Z,539.77
2022-07-31T22:35:44.293Z,540.40
2022-07-31T22:38:10.771Z,544.53
2022-07-31T22:40:37.238Z,539.13
2022-07-31T22:43:03.764Z,521.23
2022-07-31T22:45:34.832Z,536.47
2022-07-31T22:48:01.292Z,539.23
2022-07-31T22:50:27.759Z,543.30
2022-07-31T22:52:54.241Z,538.87
2022-07-31T22:55:21.554Z,544.10
2022-07-31T22:57:48.005Z,543.30
2022-07-31T23:00:14.468Z,541.50
2022-07-31T23:02:40.985Z,558.20
2022-07-31T23:05:07.474Z,554.53
2022-07-31T23:07:33.936Z,549.83
2022-07-31T23:10:00.396Z,544.70
2022-07-31T23:12:28.535Z,548.10
2022-07-31T23:14:55.944Z,553.43
2022-07-31T23:17:23.554Z,552.83
2022-07-31T23:19:53.631Z,551.47
2022-07-31T23:22:21.011Z,553.73
2022-07-31T23:25:00.546Z,541.57
2022-07-31T23:27:27.010Z,559.60
2022-07-31T23:29:53.451Z,543.67
2022-07-31T23:32:19.911Z,546.07
2022-07-31T23:34:46.354Z,553.73
2022-07-31T23:37:12.812Z,549.47
2022-07-31T23:39:39.242Z,562.17
2022-07-31T23:42:05.942Z,552.60
2022-07-31T23:44:32.607Z,546.20
2022-07-31T23:47:06.570Z,557.40
2022-07-31T23:49:33.073Z,554.23
2022-07-31T23:51:59.576Z,564.43
2022-07-31T23:54:26.015Z,555.57
2022-07-31T23:56:52.469Z,553.50
2022-07-31T23:59:18.901Z,553.87
